Presidente Peron Airport
SAZN : now visible

Aeroporto :











RITROVATECI SU...

 
LOGIN :

Iscrizione | Disclaimer

   EN    FR    IT 

 









Sommario :    VFR   VFR Marginale   IFR   IFR Intensivo   IFR Molto Intensivo
Visibilità : 
Base nubi : 
>= 8 km
>= 3000ft
5 / 8 km
1000 / 3000 ft
1500m / 5 km
500 / 1000 ft
800 / 1500m
200 / 500 ft
< 800m
< 200 ft
Simboli :   Temporali  Nebbia  Neve Forte  Precipitazioni Forti  Vento > 20 kt






- Altitudine del aeroporto : 895 ft
- Codice IATA : NQN


SAZN - Presidente Peron

ULTIMO METAR :
  • 020300Z 27002KT CAVOK 05/05 Q1017

METARs OBSOLETI :
  • 020200Z 00000KT CAVOK 05/05 Q1017
  • 020100Z 00000KT CAVOK 05/04 Q1017

TAF TAF SAZN
Valido dal 02 a 00 ore il 03 a 00 ore UTC


012300Z 0200/0224 VRB03KT CAVOK TX12/0218Z TN01/0211Z
BECMG 0208/0210 25005KT 9999 BKN040 OVC100
TEMPO 0212/0218 8000 RA OVC040
BECMG 0222/0223 5000 SHRA BKN030 OVC050
FIR SAEF / Sudamerica



MetMap, La meteo Aeronautica in un colpo d'occhio ! - Copyright ORBIFLY Dicembre 2007 - Disclaimer

ORBIFLY MET'MAP TEAM :

Programmazione e sviluppo : Alexandra Zaïnal
Concezione : Baudouin d'Aumeries
Aiuto per la programmazione : Marc-Olivier Méhu
Supporto tecnico e logistico : Manuel Goepfert
Aiuto per la traduzione : Arnaldo La Scala

Contatto : metmap@orbifly.com




FONTI E CREDITI :

   NOAA       Earth
Advisory